Time;durP1;ratioP1;P1;durP2;ratioP2;P2;SDS_P1;SDS_P2;PMS_P1;PMS_P2;Temp;Humidity;BMP_temperature;BMP_pressure;BME280_temperature;BME280_humidity;BME280_pressure;Samples;Min_cycle;Max_cycle;Signal;HPM_P1;HPM_P2
2022/11/18 00:01:23;;;;;;;;;;;5.40;99.90;;;;;;5012922;28;19918;-66
2022/11/18 00:03:50;;;;;;;;;;;5.40;99.90;;;;;;5012944;28;20318;-66
2022/11/18 00:06:16;;;;;;;;;;;5.40;99.90;;;;;;5012976;28;20371;-66
2022/11/18 00:08:42;;;;;;;;;;;5.40;99.90;;;;;;5014102;28;19916;-66
2022/11/18 00:11:10;;;;;;;;;;;5.40;99.90;;;;;;5012772;28;19910;-66
2022/11/18 00:16:21;;;;;;;;;;;5.50;99.90;;;;;;5013808;28;19910;-66
2022/11/18 00:18:47;;;;;;;;;;;5.50;99.90;;;;;;5013784;28;20327;-66
2022/11/18 00:21:13;;;;;;;;;;;5.60;99.90;;;;;;5013907;28;19910;-66
2022/11/18 00:23:38;;;;;;;;;;;5.50;99.90;;;;;;5013645;28;19996;-66
2022/11/18 00:26:05;;;;;;;;;;;5.60;99.90;;;;;;5012569;28;19909;-66
2022/11/18 00:28:31;;;;;;;;;;;5.50;99.90;;;;;;5013887;28;19913;-66
2022/11/18 00:31:00;;;;;;;;;;;5.40;99.90;;;;;;5013839;28;20012;-66
2022/11/18 00:33:26;;;;;;;;;;;5.30;99.90;;;;;;5013807;28;19916;-66
2022/11/18 00:35:52;;;;;;;;;;;5.30;99.90;;;;;;5013808;28;20457;-66
2022/11/18 00:38:18;;;;;;;;;;;5.30;99.90;;;;;;5013812;28;19909;-66
2022/11/18 00:40:43;;;;;;;;;;;5.30;99.90;;;;;;5013709;28;20311;-67
2022/11/18 00:43:09;;;;;;;;;;;5.30;99.90;;;;;;5012513;28;19909;-66
2022/11/18 00:45:34;;;;;;;;;;;5.30;99.90;;;;;;5012380;28;19921;-66
2022/11/18 00:48:01;;;;;;;;;;;5.20;99.90;;;;;;5013696;28;20327;-66
2022/11/18 00:50:27;;;;;;;;;;;5.30;99.90;;;;;;4996305;28;19909;-66
2022/11/18 00:52:52;;;;;;;;;;;5.30;99.90;;;;;;5013641;28;19972;-66
2022/11/18 00:55:18;;;;;;;;;;;5.40;99.90;;;;;;5013602;28;20330;-66
2022/11/18 00:57:43;;;;;;;;;;;5.40;99.90;;;;;;5013570;28;19910;-66
2022/11/18 01:00:09;;;;;;;;;;;5.40;99.90;;;;;;5012470;28;19909;-66
2022/11/18 01:02:35;;;;;;;;;;;5.20;99.90;;;;;;5012338;28;19910;-66
2022/11/18 01:05:00;;;;;;;;;;;5.30;99.90;;;;;;5013425;28;19976;-66
2022/11/18 01:07:26;;;;;;;;;;;5.30;99.90;;;;;;5013486;28;19910;-67
2022/11/18 01:09:51;;;;;;;;;;;5.30;99.90;;;;;;5013458;28;20322;-66
2022/11/18 01:15:02;;;;;;;;;;;5.10;99.90;;;;;;5013295;28;19917;-66
2022/11/18 01:17:29;;;;;;;;;;;5.10;99.90;;;;;;5013442;28;19910;-66
2022/11/18 01:19:54;;;;;;;;;;;5.00;99.90;;;;;;5013322;28;19995;-66
2022/11/18 01:22:20;;;;;;;;;;;5.00;99.90;;;;;;5012211;28;19915;-66
2022/11/18 01:24:45;;;;;;;;;;;5.00;99.90;;;;;;5011894;28;20363;-66
2022/11/18 01:27:11;;;;;;;;;;;5.00;99.90;;;;;;5013317;28;19917;-66
2022/11/18 01:29:36;;;;;;;;;;;5.00;99.90;;;;;;5013306;28;19910;-66
2022/11/18 01:32:02;;;;;;;;;;;5.10;99.90;;;;;;5014132;28;19909;-66
2022/11/18 01:34:28;;;;;;;;;;;5.10;99.90;;;;;;5016804;28;19916;-66
2022/11/18 01:36:55;;;;;;;;;;;5.10;99.90;;;;;;5016770;28;19918;-66
2022/11/18 01:39:20;;;;;;;;;;;5.00;99.90;;;;;;5016728;28;20004;-66
2022/11/18 01:41:46;;;;;;;;;;;4.90;99.90;;;;;;5015565;28;19948;-66
2022/11/18 01:44:31;;;;;;;;;;;4.80;99.90;;;;;;5016549;28;19913;-67
2022/11/18 01:46:57;;;;;;;;;;;4.80;99.90;;;;;;5016458;28;20425;-66
2022/11/18 01:49:23;;;;;;;;;;;4.80;99.90;;;;;;5016553;28;19909;-66
2022/11/18 01:51:51;;;;;;;;;;;4.70;99.90;;;;;;5016589;28;19932;-66
2022/11/18 01:54:21;;;;;;;;;;;4.70;99.90;;;;;;5016470;28;19910;-66
2022/11/18 01:56:49;;;;;;;;;;;4.70;99.90;;;;;;5015251;28;20004;-66
2022/11/18 01:59:17;;;;;;;;;;;4.80;99.90;;;;;;5015100;28;19910;-66
2022/11/18 02:01:42;;;;;;;;;;;4.80;99.90;;;;;;5016293;28;19910;-66
2022/11/18 02:04:08;;;;;;;;;;;4.80;99.90;;;;;;5014947;28;19920;-66
2022/11/18 02:06:34;;;;;;;;;;;4.80;99.90;;;;;;5014951;28;19909;-66
2022/11/18 02:09:00;;;;;;;;;;;4.70;99.90;;;;;;5015010;28;20372;-66
2022/11/18 02:11:57;;;;;;;;;;;4.50;99.90;;;;;;5016165;28;20008;-66
2022/11/18 02:14:11;;;;;;;;;;;4.50;99.90;;;;;;5015985;28;20301;-66
2022/11/18 02:16:54;;;;;;;;;;;4.50;99.90;;;;;;5016139;28;20004;-66
2022/11/18 02:22:19;;;;;;;;;;;4.60;99.90;;;;;;5091337;27;19926;-66
2022/11/18 02:24:59;;;;;;;;;;;4.70;99.90;;;;;;5091218;28;20254;-66
2022/11/18 02:27:44;;;;;;;;;;;4.80;99.90;;;;;;5091184;28;20415;-66
2022/11/18 02:30:11;;;;;;;;;;;4.80;99.90;;;;;;5091205;28;20334;-66
2022/11/18 02:32:40;;;;;;;;;;;4.90;99.90;;;;;;5089791;28;19908;-65
2022/11/18 02:35:26;;;;;;;;;;;4.90;99.90;;;;;;5091040;28;19991;-65
2022/11/18 02:37:55;;;;;;;;;;;5.00;99.90;;;;;;5090926;28;19909;-65
2022/11/18 02:40:24;;;;;;;;;;;5.10;99.90;;;;;;5123743;28;19918;-66
2022/11/18 02:42:54;;;;;;;;;;;5.10;99.90;;;;;;5091142;28;20402;-65
2022/11/18 02:45:20;;;;;;;;;;;5.10;99.90;;;;;;5090727;28;19920;-65
2022/11/18 02:47:46;;;;;;;;;;;5.10;99.90;;;;;;5090726;28;19908;-65
2022/11/18 02:50:14;;;;;;;;;;;5.10;99.90;;;;;;5090500;28;19908;-66
2022/11/18 02:52:41;;;;;;;;;;;5.10;99.90;;;;;;5090405;28;19912;-65
2022/11/18 02:55:09;;;;;;;;;;;5.20;99.90;;;;;;5088979;28;19908;-67
2022/11/18 02:57:34;;;;;;;;;;;5.20;99.90;;;;;;5089031;28;20285;-66
2022/11/18 03:00:00;;;;;;;;;;;5.20;99.90;;;;;;5090131;28;19923;-66
2022/11/18 03:02:26;;;;;;;;;;;5.30;99.90;;;;;;5090178;28;19909;-66
2022/11/18 03:04:55;;;;;;;;;;;5.30;99.90;;;;;;5090146;28;20304;-67
2022/11/18 03:07:24;;;;;;;;;;;5.40;99.90;;;;;;5090111;28;19912;-67
2022/11/18 03:09:50;;;;;;;;;;;5.50;99.90;;;;;;5090032;28;19958;-68
2022/11/18 03:12:21;;;;;;;;;;;5.50;99.90;;;;;;5088797;28;19908;-66
2022/11/18 03:14:58;;;;;;;;;;;5.50;99.90;;;;;;5089955;28;20390;-67
2022/11/18 03:17:29;;;;;;;;;;;5.60;99.90;;;;;;5089928;28;19909;-66
2022/11/18 03:20:02;;;;;;;;;;;5.60;99.90;;;;;;5092963;28;19920;-67
2022/11/18 03:22:31;;;;;;;;;;;5.70;99.90;;;;;;5110436;28;20014;-67
2022/11/18 03:25:16;;;;;;;;;;;5.80;99.90;;;;;;5092262;28;19962;-67
2022/11/18 03:27:54;;;;;;;;;;;5.80;99.90;;;;;;5110387;28;19962;-66
2022/11/18 03:30:20;;;;;;;;;;;5.90;99.90;;;;;;5110308;28;19908;-67
2022/11/18 03:32:50;;;;;;;;;;;5.90;99.90;;;;;;5099794;28;20289;-67
2022/11/18 03:35:19;;;;;;;;;;;5.90;99.90;;;;;;5096567;28;19908;-67
2022/11/18 03:37:46;;;;;;;;;;;5.90;99.90;;;;;;5078406;28;20377;-67
2022/11/18 03:40:16;;;;;;;;;;;5.90;99.90;;;;;;5096500;28;19912;-67
2022/11/18 03:42:45;;;;;;;;;;;5.90;99.90;;;;;;5096539;28;19961;-66
2022/11/18 03:45:13;;;;;;;;;;;5.90;99.90;;;;;;5096428;28;20375;-67
2022/11/18 03:47:41;;;;;;;;;;;5.90;99.90;;;;;;5096413;28;19909;-66
2022/11/18 03:50:09;;;;;;;;;;;5.90;99.90;;;;;;5096318;28;19908;-67
2022/11/18 03:52:35;;;;;;;;;;;5.80;99.90;;;;;;5096246;28;20005;-67
2022/11/18 03:55:04;;;;;;;;;;;5.90;99.90;;;;;;5096187;28;19912;-67
2022/11/18 03:57:33;;;;;;;;;;;5.90;99.90;;;;;;5096154;28;19908;-67
2022/11/18 04:00:05;;;;;;;;;;;5.90;99.90;;;;;;5096108;28;20383;-66
2022/11/18 04:02:30;;;;;;;;;;;6.00;99.90;;;;;;5096094;28;19919;-66
2022/11/18 04:04:58;;;;;;;;;;;6.10;99.90;;;;;;5096099;28;19908;-66
2022/11/18 04:07:27;;;;;;;;;;;6.10;99.90;;;;;;5096017;28;20365;-66
2022/11/18 04:09:57;;;;;;;;;;;6.10;99.90;;;;;;5095991;28;19951;-66
2022/11/18 04:12:24;;;;;;;;;;;6.20;99.90;;;;;;5095927;28;19955;-66
2022/11/18 04:14:54;;;;;;;;;;;6.20;99.90;;;;;;5095939;28;19916;-66
2022/11/18 04:17:21;;;;;;;;;;;6.20;99.90;;;;;;5095806;28;19915;-67
2022/11/18 04:19:47;;;;;;;;;;;6.20;99.90;;;;;;5095504;28;19912;-66
2022/11/18 04:22:13;;;;;;;;;;;6.20;99.90;;;;;;5095735;28;20369;-66
2022/11/18 04:24:38;;;;;;;;;;;6.30;99.90;;;;;;5095651;28;19915;-66
2022/11/18 04:27:04;;;;;;;;;;;6.30;99.90;;;;;;5095630;28;19909;-66
2022/11/18 04:29:31;;;;;;;;;;;6.40;99.90;;;;;;5077477;28;19919;-66
2022/11/18 04:31:57;;;;;;;;;;;6.40;99.90;;;;;;5077490;28;19908;-66
2022/11/18 04:34:22;;;;;;;;;;;6.50;99.90;;;;;;5060650;28;20014;-66
2022/11/18 04:36:47;;;;;;;;;;;6.60;99.90;;;;;;5077430;28;19908;-66
2022/11/18 04:39:13;;;;;;;;;;;6.60;99.90;;;;;;5095404;28;19908;-67
2022/11/18 04:42:09;;;;;;;;;;;6.60;99.90;;;;;;5095577;28;20391;-66
2022/11/18 04:44:25;;;;;;;;;;;6.60;99.90;;;;;;5094085;28;20378;-66
2022/11/18 04:46:51;;;;;;;;;;;6.60;99.90;;;;;;5095228;28;19954;-66
2022/11/18 04:49:17;;;;;;;;;;;6.60;99.90;;;;;;5060505;28;19908;-66
2022/11/18 04:51:43;;;;;;;;;;;6.60;99.90;;;;;;5095123;28;20330;-66
2022/11/18 04:54:09;;;;;;;;;;;6.60;99.90;;;;;;5095019;28;19915;-66
2022/11/18 04:56:35;;;;;;;;;;;6.60;99.90;;;;;;5094981;28;19908;-66
2022/11/18 04:59:01;;;;;;;;;;;6.50;99.90;;;;;;5094963;28;19999;-67
2022/11/18 05:01:27;;;;;;;;;;;6.50;99.90;;;;;;5094915;28;19947;-66
2022/11/18 05:03:53;;;;;;;;;;;6.50;99.90;;;;;;5094937;28;19963;-66
2022/11/18 05:06:19;;;;;;;;;;;6.60;99.90;;;;;;5094842;28;19923;-66
2022/11/18 05:08:44;;;;;;;;;;;6.60;99.90;;;;;;5094805;28;20388;-67
2022/11/18 05:13:55;;;;;;;;;;;6.60;99.90;;;;;;5094574;28;20374;-66
2022/11/18 05:16:21;;;;;;;;;;;6.70;99.90;;;;;;5076481;28;20026;-66
2022/11/18 05:18:46;;;;;;;;;;;6.70;99.90;;;;;;5059705;28;19961;-66
2022/11/18 05:21:12;;;;;;;;;;;6.70;99.90;;;;;;5076111;28;19920;-66
2022/11/18 05:23:37;;;;;;;;;;;6.70;99.90;;;;;;5094539;28;19915;-66
2022/11/18 05:26:04;;;;;;;;;;;6.80;99.90;;;;;;5076338;28;19908;-66
2022/11/18 05:28:30;;;;;;;;;;;6.70;99.90;;;;;;5076409;28;20287;-66
2022/11/18 05:30:56;;;;;;;;;;;6.80;99.90;;;;;;5076320;28;19908;-66
2022/11/18 05:33:21;;;;;;;;;;;6.80;99.90;;;;;;5094343;28;19915;-66
2022/11/18 05:35:46;;;;;;;;;;;6.80;99.90;;;;;;5094447;28;19912;-66
2022/11/18 05:38:12;;;;;;;;;;;6.80;99.90;;;;;;5094260;28;20332;-66
2022/11/18 05:40:37;;;;;;;;;;;6.80;99.90;;;;;;5076086;28;19912;-66
2022/11/18 05:43:10;;;;;;;;;;;6.80;99.90;;;;;;5076148;28;19916;-66
2022/11/18 05:45:36;;;;;;;;;;;6.80;99.90;;;;;;5094192;28;20420;-66
2022/11/18 05:48:03;;;;;;;;;;;6.80;99.90;;;;;;5094159;28;19973;-67
2022/11/18 05:50:29;;;;;;;;;;;6.80;99.90;;;;;;5094093;28;19915;-67
2022/11/18 05:52:54;;;;;;;;;;;6.80;99.90;;;;;;5094025;28;20025;-67
2022/11/18 05:55:22;;;;;;;;;;;6.80;99.90;;;;;;5093782;28;19951;-66
2022/11/18 05:57:48;;;;;;;;;;;6.90;99.90;;;;;;5093921;28;19915;-66
2022/11/18 06:00:13;;;;;;;;;;;6.90;99.90;;;;;;5093765;28;19912;-66
2022/11/18 06:02:40;;;;;;;;;;;7.00;99.90;;;;;;5075895;28;19909;-67
2022/11/18 06:05:05;;;;;;;;;;;6.90;99.90;;;;;;5093879;28;19908;-66
2022/11/18 06:07:36;;;;;;;;;;;7.00;99.90;;;;;;5093880;28;20262;-66
2022/11/18 06:10:01;;;;;;;;;;;7.00;99.90;;;;;;5093839;28;20372;-66
2022/11/18 06:12:29;;;;;;;;;;;7.00;99.90;;;;;;5075789;28;19908;-67
2022/11/18 06:14:57;;;;;;;;;;;7.00;99.90;;;;;;5093779;28;19951;-67
2022/11/18 06:17:25;;;;;;;;;;;7.10;99.90;;;;;;5093733;28;19915;-67
2022/11/18 06:19:51;;;;;;;;;;;7.10;99.90;;;;;;5093453;28;19934;-67
2022/11/18 06:22:16;;;;;;;;;;;7.10;99.90;;;;;;5093687;28;19913;-66
2022/11/18 06:24:42;;;;;;;;;;;7.10;99.90;;;;;;5093718;28;19915;-66
2022/11/18 06:27:08;;;;;;;;;;;7.10;99.90;;;;;;5093664;28;19915;-66
2022/11/18 06:29:33;;;;;;;;;;;7.10;99.90;;;;;;5093612;28;19915;-66
2022/11/18 06:31:59;;;;;;;;;;;7.10;99.90;;;;;;5075531;28;19916;-66
2022/11/18 06:34:24;;;;;;;;;;;7.10;99.90;;;;;;5093573;28;19908;-66
2022/11/18 06:36:49;;;;;;;;;;;7.10;99.90;;;;;;5093581;28;19912;-66
2022/11/18 06:39:15;;;;;;;;;;;7.10;99.90;;;;;;5075432;28;19908;-66
2022/11/18 06:41:40;;;;;;;;;;;7.10;99.90;;;;;;5093428;28;19947;-66
2022/11/18 06:44:06;;;;;;;;;;;7.10;99.90;;;;;;5075404;28;19908;-66
2022/11/18 06:47:02;;;;;;;;;;;7.10;99.90;;;;;;5093470;28;19908;-66
2022/11/18 06:49:17;;;;;;;;;;;7.10;99.90;;;;;;5093283;28;19908;-66
2022/11/18 06:51:42;;;;;;;;;;;7.10;99.90;;;;;;5093370;28;19908;-66
2022/11/18 06:54:08;;;;;;;;;;;7.10;99.90;;;;;;5075306;28;19915;-66
2022/11/18 06:56:33;;;;;;;;;;;7.10;99.90;;;;;;5075334;28;19908;-66
2022/11/18 06:58:59;;;;;;;;;;;7.20;99.90;;;;;;5093355;28;19909;-66
2022/11/18 07:01:25;;;;;;;;;;;7.20;99.90;;;;;;5076885;28;19919;-67
2022/11/18 07:03:51;;;;;;;;;;;7.20;99.90;;;;;;5076096;28;20302;-66
2022/11/18 07:06:18;;;;;;;;;;;7.20;99.90;;;;;;5081976;28;19927;-66
2022/11/18 07:08:44;;;;;;;;;;;7.20;99.90;;;;;;5090650;28;20421;-66
2022/11/18 07:11:11;;;;;;;;;;;7.30;99.90;;;;;;5072337;28;19951;-66
2022/11/18 07:13:36;;;;;;;;;;;7.30;99.90;;;;;;5096339;28;19916;-65
2022/11/18 07:16:03;;;;;;;;;;;7.30;99.90;;;;;;5094333;28;19957;-66
2022/11/18 07:18:30;;;;;;;;;;;7.30;99.90;;;;;;5077345;28;19921;-67
2022/11/18 07:20:55;;;;;;;;;;;7.30;99.90;;;;;;5085701;28;20386;-66
2022/11/18 07:23:21;;;;;;;;;;;7.30;99.90;;;;;;5096758;28;19915;-66
2022/11/18 07:25:46;;;;;;;;;;;7.30;99.90;;;;;;5095342;28;19919;-66
2022/11/18 07:28:11;;;;;;;;;;;7.30;99.90;;;;;;5088308;28;19935;-66
2022/11/18 07:30:37;;;;;;;;;;;7.30;99.90;;;;;;5090734;28;19919;-66
2022/11/18 07:33:02;;;;;;;;;;;7.30;99.90;;;;;;5088096;28;19920;-69
2022/11/18 07:35:28;;;;;;;;;;;7.30;99.90;;;;;;5077160;28;19962;-66
2022/11/18 07:37:53;;;;;;;;;;;7.40;99.90;;;;;;5076222;28;19916;-66
2022/11/18 07:40:19;;;;;;;;;;;7.40;99.90;;;;;;5066951;28;19923;-66
2022/11/18 07:42:44;;;;;;;;;;;7.40;99.90;;;;;;5080252;28;19909;-67
2022/11/18 07:45:10;;;;;;;;;;;7.40;99.90;;;;;;5079897;28;19916;-66
2022/11/18 07:47:35;;;;;;;;;;;7.40;99.90;;;;;;5086080;28;19985;-67
2022/11/18 07:50:01;;;;;;;;;;;7.40;99.90;;;;;;5086629;28;20389;-66
2022/11/18 07:52:26;;;;;;;;;;;7.40;99.90;;;;;;5084886;28;19916;-65
2022/11/18 07:54:52;;;;;;;;;;;7.40;99.90;;;;;;5083784;28;20393;-67
2022/11/18 07:57:17;;;;;;;;;;;7.40;99.90;;;;;;5063985;28;20327;-67
2022/11/18 07:59:43;;;;;;;;;;;7.50;99.90;;;;;;5091273;28;19912;-65
2022/11/18 08:02:11;;;;;;;;;;;7.40;99.90;;;;;;5092079;28;19958;-65
2022/11/18 08:04:37;;;;;;;;;;;7.60;99.90;;;;;;5092911;28;20328;-68
2022/11/18 08:07:02;;;;;;;;;;;7.60;99.90;;;;;;5090722;28;19931;-65
2022/11/18 08:09:28;;;;;;;;;;;7.60;99.90;;;;;;5098737;28;20440;-65
2022/11/18 08:11:53;;;;;;;;;;;7.60;99.90;;;;;;5089240;28;19912;-65
2022/11/18 08:14:20;;;;;;;;;;;7.70;99.90;;;;;;5095526;28;19951;-66
2022/11/18 08:16:46;;;;;;;;;;;7.70;99.90;;;;;;5095032;28;19957;-66
2022/11/18 08:19:11;;;;;;;;;;;7.70;99.90;;;;;;5087470;28;19908;-65
2022/11/18 08:21:37;;;;;;;;;;;7.80;99.90;;;;;;5090631;28;19920;-66
2022/11/18 08:24:02;;;;;;;;;;;7.80;99.90;;;;;;5091767;28;20377;-65
2022/11/18 08:26:28;;;;;;;;;;;7.90;99.90;;;;;;5095191;28;20423;-65
2022/11/18 08:28:53;;;;;;;;;;;7.90;99.90;;;;;;5065237;28;19919;-66
2022/11/18 08:31:20;;;;;;;;;;;8.00;99.90;;;;;;5109290;28;19938;-65
2022/11/18 08:33:46;;;;;;;;;;;7.90;99.90;;;;;;5089402;28;19965;-66
2022/11/18 08:36:13;;;;;;;;;;;8.00;99.90;;;;;;5070145;28;20336;-66
2022/11/18 08:38:39;;;;;;;;;;;8.00;99.90;;;;;;5092988;28;19996;-66
2022/11/18 08:41:06;;;;;;;;;;;8.10;99.90;;;;;;5075467;28;19985;-65
2022/11/18 08:43:32;;;;;;;;;;;8.10;99.90;;;;;;5093107;28;19912;-66
2022/11/18 08:45:57;;;;;;;;;;;8.10;99.90;;;;;;5107551;28;20372;-66
2022/11/18 08:48:23;;;;;;;;;;;8.10;99.90;;;;;;5075532;28;19924;-66
2022/11/18 08:50:48;;;;;;;;;;;8.10;99.90;;;;;;5097971;28;19912;-66
2022/11/18 08:53:14;;;;;;;;;;;8.20;99.90;;;;;;5090155;28;19912;-66
2022/11/18 08:55:39;;;;;;;;;;;8.20;99.90;;;;;;5083080;28;19908;-66
2022/11/18 08:58:05;;;;;;;;;;;8.30;99.90;;;;;;5074651;28;19912;-66
2022/11/18 09:00:30;;;;;;;;;;;8.30;99.90;;;;;;5064690;28;19920;-66
2022/11/18 09:02:56;;;;;;;;;;;8.20;99.90;;;;;;5074443;28;19919;-69
2022/11/18 09:05:21;;;;;;;;;;;8.30;99.90;;;;;;5087882;28;19912;-67
2022/11/18 09:07:46;;;;;;;;;;;8.30;99.90;;;;;;5070506;28;19955;-66
2022/11/18 09:10:12;;;;;;;;;;;8.30;99.90;;;;;;5086472;28;19983;-66
2022/11/18 09:12:37;;;;;;;;;;;8.30;99.90;;;;;;5085739;28;19916;-66
2022/11/18 09:15:03;;;;;;;;;;;8.30;99.90;;;;;;5082266;28;19920;-66
2022/11/18 09:17:28;;;;;;;;;;;8.30;99.90;;;;;;5087227;28;19989;-66
2022/11/18 09:19:54;;;;;;;;;;;8.30;99.90;;;;;;5074460;28;19927;-66
2022/11/18 09:22:19;;;;;;;;;;;8.30;99.90;;;;;;5093744;28;19920;-66
2022/11/18 09:24:45;;;;;;;;;;;8.30;99.90;;;;;;5087952;28;20325;-66
2022/11/18 09:27:10;;;;;;;;;;;8.40;99.90;;;;;;5084372;28;19916;-66
2022/11/18 09:29:36;;;;;;;;;;;8.40;99.90;;;;;;5079141;28;19920;-67
2022/11/18 09:32:02;;;;;;;;;;;8.40;99.90;;;;;;5078632;28;19913;-69
2022/11/18 09:34:28;;;;;;;;;;;8.40;99.90;;;;;;5089556;28;19919;-67
2022/11/18 09:36:55;;;;;;;;;;;8.50;99.90;;;;;;5091746;28;19919;-67
2022/11/18 09:39:22;;;;;;;;;;;8.50;99.90;;;;;;5062881;28;19942;-67
2022/11/18 09:41:49;;;;;;;;;;;8.50;99.90;;;;;;5072829;28;19965;-67
2022/11/18 09:44:35;;;;;;;;;;;8.50;99.90;;;;;;5100191;28;20278;-67
2022/11/18 09:47:10;;;;;;;;;;;8.50;99.90;;;;;;5088160;28;19938;-66
2022/11/18 09:49:38;;;;;;;;;;;8.50;99.90;;;;;;5072074;28;20003;-67
2022/11/18 09:52:16;;;;;;;;;;;8.40;99.90;;;;;;5079992;28;20277;-67
2022/11/18 09:54:41;;;;;;;;;;;8.50;99.90;;;;;;5061025;28;19916;-67
2022/11/18 09:57:24;;;;;;;;;;;8.50;99.90;;;;;;5091010;28;19957;-68
2022/11/18 09:59:49;;;;;;;;;;;8.50;99.90;;;;;;5090589;28;20289;-68
2022/11/18 10:02:35;;;;;;;;;;;8.50;99.90;;;;;;5079161;28;19954;-67
2022/11/18 10:05:12;;;;;;;;;;;8.60;99.90;;;;;;5093403;28;19920;-67
2022/11/18 10:07:42;;;;;;;;;;;8.70;99.90;;;;;;5092647;28;19920;-67
2022/11/18 10:10:13;;;;;;;;;;;8.80;99.90;;;;;;5085444;28;20290;-68
2022/11/18 10:12:58;;;;;;;;;;;9.00;99.90;;;;;;5092272;28;20411;-67
2022/11/18 10:15:31;;;;;;;;;;;9.10;99.90;;;;;;5070154;28;19955;-68
2022/11/18 10:18:02;;;;;;;;;;;9.20;99.90;;;;;;5072741;28;19963;-67
2022/11/18 10:20:47;;;;;;;;;;;9.40;99.90;;;;;;5074352;28;19920;-67
2022/11/18 10:23:15;;;;;;;;;;;9.40;99.90;;;;;;5072602;28;19916;-67
2022/11/18 10:25:41;;;;;;;;;;;9.40;99.90;;;;;;5088825;28;20324;-67
2022/11/18 10:28:28;;;;;;;;;;;9.40;99.90;;;;;;5079200;28;19916;-67
2022/11/18 10:31:02;;;;;;;;;;;9.50;99.90;;;;;;5089466;28;19912;-67
2022/11/18 10:33:28;;;;;;;;;;;9.60;99.90;;;;;;5072798;28;20400;-66
2022/11/18 10:36:13;;;;;;;;;;;9.80;99.90;;;;;;5095012;28;19990;-67
2022/11/18 10:38:38;;;;;;;;;;;9.80;99.90;;;;;;5092597;28;20361;-67
2022/11/18 10:41:06;;;;;;;;;;;9.80;99.90;;;;;;5093668;28;20007;-67
2022/11/18 10:43:49;;;;;;;;;;;9.90;99.90;;;;;;5076459;28;19966;-67
2022/11/18 10:46:16;;;;;;;;;;;9.80;99.90;;;;;;5095602;28;19919;-67
2022/11/18 10:48:41;;;;;;;;;;;9.90;99.90;;;;;;5101063;28;20289;-67
2022/11/18 10:51:19;;;;;;;;;;;9.90;99.90;;;;;;5095468;28;19912;-67
2022/11/18 10:53:45;;;;;;;;;;;10.00;99.90;;;;;;5097152;28;19912;-67
2022/11/18 10:56:12;;;;;;;;;;;10.20;99.90;;;;;;5099855;28;19915;-67
2022/11/18 10:58:46;;;;;;;;;;;10.30;99.90;;;;;;5098266;28;19916;-67
2022/11/18 11:01:19;;;;;;;;;;;10.40;99.90;;;;;;5095931;28;20365;-67
2022/11/18 11:04:01;;;;;;;;;;;10.60;99.90;;;;;;5087179;28;20007;-67
2022/11/18 11:06:29;;;;;;;;;;;10.70;99.90;;;;;;5090151;28;19948;-67
2022/11/18 11:08:56;;;;;;;;;;;10.70;99.90;;;;;;5063763;28;20401;-68
2022/11/18 11:11:31;;;;;;;;;;;10.70;99.90;;;;;;5085055;28;19947;-67
2022/11/18 11:14:03;;;;;;;;;;;10.60;99.90;;;;;;5084548;28;19919;-67
2022/11/18 11:16:30;;;;;;;;;;;10.70;99.90;;;;;;5077939;28;20046;-67
2022/11/18 11:18:58;;;;;;;;;;;10.60;99.90;;;;;;5091603;28;19919;-67
2022/11/18 11:21:26;;;;;;;;;;;10.70;99.90;;;;;;5050428;28;20378;-67
2022/11/18 11:23:51;;;;;;;;;;;10.70;99.90;;;;;;5083924;28;19915;-70
2022/11/18 11:26:23;;;;;;;;;;;10.80;99.90;;;;;;5084707;28;20295;-68
2022/11/18 11:29:00;;;;;;;;;;;10.80;99.90;;;;;;5082239;28;19912;-67
2022/11/18 11:31:35;;;;;;;;;;;10.80;99.90;;;;;;5081473;28;19913;-67
2022/11/18 11:34:20;;;;;;;;;;;10.90;99.90;;;;;;5076271;28;19912;-67
2022/11/18 11:37:05;;;;;;;;;;;10.90;99.90;;;;;;5094916;28;20259;-67
2022/11/18 11:39:51;;;;;;;;;;;10.90;99.90;;;;;;5094859;28;20353;-67
2022/11/18 11:42:36;;;;;;;;;;;10.80;99.90;;;;;;5078373;28;20374;-67
2022/11/18 11:45:13;;;;;;;;;;;10.70;99.90;;;;;;5087393;28;20311;-67
2022/11/18 11:47:48;;;;;;;;;;;10.70;99.90;;;;;;5095735;28;19939;-67
2022/11/18 11:50:52;;;;;;;;;;;10.70;99.90;;;;;;5079931;28;19919;-68
2022/11/18 11:56:16;;;;;;;;;;;10.70;99.90;;;;;;5089544;27;19916;-65
2022/11/18 12:01:48;;;;;;;;;;;10.80;99.90;;;;;;5071874;27;19921;-65
2022/11/18 12:04:22;;;;;;;;;;;11.10;99.90;;;;;;5075634;28;19920;-65
2022/11/18 12:06:50;;;;;;;;;;;11.20;99.90;;;;;;5050604;28;19912;-65
2022/11/18 12:09:33;;;;;;;;;;;11.20;99.90;;;;;;5051258;28;19921;-66
2022/11/18 12:12:33;;;;;;;;;;;11.20;99.90;;;;;;5047231;28;19913;-66
2022/11/18 12:14:59;;;;;;;;;;;11.20;99.90;;;;;;5054232;28;19913;-65
2022/11/18 12:17:31;;;;;;;;;;;11.20;99.90;;;;;;5066062;28;19909;-66
2022/11/18 12:19:56;;;;;;;;;;;11.10;99.90;;;;;;5052199;28;20007;-65
2022/11/18 12:22:22;;;;;;;;;;;11.00;99.90;;;;;;5057669;28;19964;-66
2022/11/18 12:24:47;;;;;;;;;;;10.90;99.90;;;;;;5056432;28;19913;-65
2022/11/18 12:27:33;;;;;;;;;;;10.90;99.90;;;;;;5054600;28;19920;-66
2022/11/18 12:30:00;;;;;;;;;;;11.00;99.90;;;;;;5055273;28;20049;-66
2022/11/18 12:32:28;;;;;;;;;;;11.10;99.90;;;;;;5053234;28;19916;-66
2022/11/18 12:34:58;;;;;;;;;;;11.20;99.90;;;;;;5060277;28;19965;-65
2022/11/18 12:40:01;;;;;;;;;;;11.50;99.90;;;;;;5087231;27;19923;-66
2022/11/18 12:45:39;;;;;;;;;;;11.60;99.90;;;;;;5080602;28;20317;-67
2022/11/18 12:48:24;;;;;;;;;;;11.70;99.90;;;;;;5060995;28;19913;-66
2022/11/18 12:50:51;;;;;;;;;;;11.60;99.90;;;;;;5072496;28;20325;-66
2022/11/18 12:53:36;;;;;;;;;;;11.20;99.90;;;;;;5073902;28;19942;-66
2022/11/18 12:56:11;;;;;;;;;;;11.10;99.90;;;;;;5073023;28;19917;-68
2022/11/18 12:58:36;;;;;;;;;;;10.70;99.90;;;;;;5077162;28;20003;-66
2022/11/18 13:01:04;;;;;;;;;;;10.70;99.90;;;;;;5073068;28;20421;-66
2022/11/18 13:03:31;;;;;;;;;;;10.60;99.90;;;;;;5083858;28;19968;-66
2022/11/18 13:06:00;;;;;;;;;;;10.50;99.90;;;;;;5059484;28;19913;-65
2022/11/18 13:08:26;;;;;;;;;;;10.50;99.90;;;;;;5067988;28;20382;-66
2022/11/18 13:11:43;;;;;;;;;;;10.40;99.90;;;;;;5101065;28;19927;-67
2022/11/18 13:13:40;;;;;;;;;;;10.30;99.90;;;;;;5067185;28;19952;-66
2022/11/18 13:19:02;;;;;;;;;;;10.10;99.90;;;;;;5057520;28;20019;-66
2022/11/18 13:24:15;;;;;;;;;;;10.10;99.90;;;;;;5069990;28;19920;-66
2022/11/18 13:26:42;;;;;;;;;;;10.00;99.90;;;;;;5068365;28;19940;-66
2022/11/18 13:29:28;;;;;;;;;;;10.00;99.90;;;;;;5068956;28;19912;-66
2022/11/18 13:32:00;;;;;;;;;;;9.80;99.90;;;;;;5068569;28;19954;-66
2022/11/18 13:34:28;;;;;;;;;;;9.80;99.90;;;;;;5068470;28;20384;-66
2022/11/18 13:36:54;;;;;;;;;;;9.70;99.90;;;;;;5068897;28;19916;-66
2022/11/18 13:39:22;;;;;;;;;;;9.60;99.90;;;;;;5083495;28;19965;-66
2022/11/18 13:42:04;;;;;;;;;;;9.70;99.90;;;;;;5089981;28;19908;-66
2022/11/18 13:44:31;;;;;;;;;;;9.60;99.90;;;;;;5105719;28;19908;-66
2022/11/18 13:47:03;;;;;;;;;;;9.50;99.90;;;;;;5089937;28;19931;-66
2022/11/18 13:49:34;;;;;;;;;;;9.40;99.90;;;;;;5086875;28;19938;-66
2022/11/18 13:52:00;;;;;;;;;;;9.30;99.90;;;;;;5092153;28;19909;-66
2022/11/18 13:54:26;;;;;;;;;;;9.30;99.90;;;;;;5076289;28;19915;-66
2022/11/18 13:56:52;;;;;;;;;;;9.10;99.90;;;;;;5092009;28;19909;-65
2022/11/18 13:59:19;;;;;;;;;;;9.20;99.90;;;;;;5091913;28;19967;-66
2022/11/18 14:01:46;;;;;;;;;;;9.10;99.90;;;;;;5091850;28;19909;-66
2022/11/18 14:04:17;;;;;;;;;;;9.10;99.90;;;;;;5076154;28;19952;-66
2022/11/18 14:06:43;;;;;;;;;;;9.10;99.90;;;;;;5076037;28;19909;-66
2022/11/18 14:09:12;;;;;;;;;;;9.00;99.90;;;;;;5074768;28;19908;-66
2022/11/18 14:11:39;;;;;;;;;;;9.10;99.90;;;;;;5076037;28;19916;-66
2022/11/18 14:14:05;;;;;;;;;;;9.00;99.90;;;;;;5075954;28;20410;-66
2022/11/18 14:16:40;;;;;;;;;;;9.10;99.90;;;;;;5075964;28;19908;-66
2022/11/18 14:19:06;;;;;;;;;;;9.00;99.90;;;;;;5075829;28;19912;-66
2022/11/18 14:21:34;;;;;;;;;;;8.90;99.90;;;;;;5091482;28;19909;-66
2022/11/18 14:24:00;;;;;;;;;;;8.90;99.90;;;;;;5075740;28;20325;-66
2022/11/18 14:26:30;;;;;;;;;;;8.90;99.90;;;;;;5075714;28;19908;-66
2022/11/18 14:28:57;;;;;;;;;;;8.80;99.90;;;;;;5075578;28;19931;-66
2022/11/18 14:31:24;;;;;;;;;;;8.80;99.90;;;;;;5057547;28;19908;-66
2022/11/18 14:34:09;;;;;;;;;;;8.80;99.90;;;;;;5075588;28;19950;-66
2022/11/18 14:36:34;;;;;;;;;;;8.70;99.90;;;;;;5075545;28;19916;-66
2022/11/18 14:39:00;;;;;;;;;;;8.60;99.90;;;;;;5075199;28;19920;-66
2022/11/18 14:41:56;;;;;;;;;;;8.60;99.90;;;;;;5075337;28;20007;-66
2022/11/18 14:44:12;;;;;;;;;;;8.50;99.90;;;;;;5075372;28;19910;-65
2022/11/18 14:46:38;;;;;;;;;;;8.50;99.90;;;;;;5090880;28;19951;-66
2022/11/18 14:49:04;;;;;;;;;;;8.50;99.90;;;;;;5075292;28;19912;-66
2022/11/18 14:51:29;;;;;;;;;;;8.50;99.90;;;;;;5090910;28;20428;-65
2022/11/18 14:53:55;;;;;;;;;;;8.40;99.90;;;;;;5075248;28;19909;-66
2022/11/18 14:56:23;;;;;;;;;;;8.50;99.90;;;;;;5057263;28;20318;-66
2022/11/18 14:58:48;;;;;;;;;;;8.40;99.90;;;;;;5075021;28;20385;-66
2022/11/18 15:01:14;;;;;;;;;;;8.40;99.90;;;;;;5073078;28;20021;-66
2022/11/18 15:03:39;;;;;;;;;;;8.40;99.90;;;;;;5074665;28;20367;-66
2022/11/18 15:06:10;;;;;;;;;;;8.30;99.90;;;;;;5090841;28;19909;-67